METAR does not decode completely on WX pages


#1

The METARs on ADDS say:

KCVG 182052Z 13004KT 1 1/2SM RA BR FEW010 BKN027 OVC035 12/11 A2982 RMK AO2 SFC VIS 2 SLP098 P0015 60024 T01170111 58034
KCVG 182031Z 17005KT 1 1/2SM -RA BR FEW008 SCT024 OVC035 12/11 A2984 RMK AO2 SFC VIS 2 1/2 P0013
KCVG 181952Z 19009KT 1 1/2SM RA BR SCT007 BKN023 OVC045 12/11 A2987 RMK AO2 SFC VIS 2 SLP113 P0008 T01170111

Rain, Mist at 2052, Light Rain, Mist at 2031, Rain, Mist at 1952

However, at
flightaware.com/live/airport/KCVG/wx/
It only says Mist on those times

Also KDFW:

KDFW 182053Z 35022G26KT 4SM TSRA BKN010 OVC014CB 13/11 A2957 RMK AO2 PK WND 33027/2044 TSB38 SLP009 FRQ LTGICCG OHD TS OHD MOV NE P0012 60027 T01330106 58012
KDFW 182040Z 33023KT 4SM +TSRA OVC012CB 13/11 A2959 RMK AO2 PK WND 33027/2040 TSB38 OCNL LTGIC OHD TS OHD MOV NE P0006
KDFW 181953Z 35021KT 7SM -RA OVC012 14/11 A2960 RMK AO2 PK WND 02027/1902 SLP018 P0007 T01390111

Thunderstorms, Rain at 2053, Heavy Thunderstorms, Rain at 2040, Light Rain at 1953 and none of these show up at all on the flightaware.com/live/airport/KDFW/wx/ page


#2

Looks like this is still going on. Now you can see it at KIAG, it lists a whole bunch of precip:

KIAG 252045Z 20020G26KT 2 1/2SM -RASN BR FEW008 BKN013 OVC021 02/00 A2984 RMK AO2 PK WND 21033/2015 SNB01 P0003
KIAG 252012Z 19021G24KT 4SM -RASN FEW008 BKN011 OVC019 02/M01 A2984 RMK AO2 PK WND 21028/1954 SNB01 P0000
KIAG 252001Z 20021G28KT 4SM -RASN SCT009 BKN018 OVC032 02/M01 A2985 RMK AO2 PK WND 21028/1954 SNB01 PRESFR P0000
KIAG 251953Z 20022G32KT 4SM -RA FEW010 BKN024 OVC040 03/M01 A2987 RMK AO2 PK WND 20032/1947 RAB16 SLP130 P0000 T00281011
KIAG 251916Z 20018G26KT 10SM -RA FEW020 BKN025 BKN045 OVC130 04/M06 A2990 RMK AO2 PK WND 19026/1915 RAB16 P0000

But nothing is showing up on Flightaware.

What should be in the ‘Other’ column?